sensor_id;sensor_type;location;lat;lon;timestamp;temperature;humidity
7998;DHT22;4044;49.814;7.828;2023-04-01T00:00:58;10.60;99.90
7998;DHT22;4044;49.814;7.828;2023-04-01T00:03:24;10.60;99.90
7998;DHT22;4044;49.814;7.828;2023-04-01T00:05:51;10.60;99.90
7998;DHT22;4044;49.814;7.828;2023-04-01T00:08:16;10.60;99.90
7998;DHT22;4044;49.814;7.828;2023-04-01T00:10:42;10.60;99.90
7998;DHT22;4044;49.814;7.828;2023-04-01T00:13:08;10.60;99.90
7998;DHT22;4044;49.814;7.828;2023-04-01T00:15:34;10.60;99.90
7998;DHT22;4044;49.814;7.828;2023-04-01T00:18:00;10.70;99.90
7998;DHT22;4044;49.814;7.828;2023-04-01T00:20:26;10.60;99.90
7998;DHT22;4044;49.814;7.828;2023-04-01T00:22:52;10.50;99.90
7998;DHT22;4044;49.814;7.828;2023-04-01T00:25:18;10.50;99.90
7998;DHT22;4044;49.814;7.828;2023-04-01T00:27:43;10.50;99.90
7998;DHT22;4044;49.814;7.828;2023-04-01T00:30:10;10.60;99.90
7998;DHT22;4044;49.814;7.828;2023-04-01T00:32:35;10.60;99.90
7998;DHT22;4044;49.814;7.828;2023-04-01T00:35:01;10.60;99.90
7998;DHT22;4044;49.814;7.828;2023-04-01T00:37:27;10.60;99.90
7998;DHT22;4044;49.814;7.828;2023-04-01T00:39:53;10.60;99.90
7998;DHT22;4044;49.814;7.828;2023-04-01T00:42:19;10.60;99.90
7998;DHT22;4044;49.814;7.828;2023-04-01T00:44:50;10.60;99.90
7998;DHT22;4044;49.814;7.828;2023-04-01T00:47:16;10.60;99.90
7998;DHT22;4044;49.814;7.828;2023-04-01T00:49:45;10.60;99.90
7998;DHT22;4044;49.814;7.828;2023-04-01T00:52:15;10.70;99.90
7998;DHT22;4044;49.814;7.828;2023-04-01T00:54:43;10.70;99.90
7998;DHT22;4044;49.814;7.828;2023-04-01T00:57:23;10.70;99.90
7998;DHT22;4044;49.814;7.828;2023-04-01T00:59:52;10.70;99.90
7998;DHT22;4044;49.814;7.828;2023-04-01T01:02:19;10.60;99.90
7998;DHT22;4044;49.814;7.828;2023-04-01T01:04:45;10.60;99.90
7998;DHT22;4044;49.814;7.828;2023-04-01T01:07:31;10.60;99.90
7998;DHT22;4044;49.814;7.828;2023-04-01T01:10:07;10.70;99.90
7998;DHT22;4044;49.814;7.828;2023-04-01T01:12:45;10.60;99.90
7998;DHT22;4044;49.814;7.828;2023-04-01T01:15:29;10.60;99.90
7998;DHT22;4044;49.814;7.828;2023-04-01T01:23:38;10.70;99.90
7998;DHT22;4044;49.814;7.828;2023-04-01T01:36:59;10.70;99.90
7998;DHT22;4044;49.814;7.828;2023-04-01T01:39:30;10.60;99.90
7998;DHT22;4044;49.814;7.828;2023-04-01T01:41:57;10.60;99.90
7998;DHT22;4044;49.814;7.828;2023-04-01T01:44:26;10.60;99.90
7998;DHT22;4044;49.814;7.828;2023-04-01T01:46:53;10.80;99.90
7998;DHT22;4044;49.814;7.828;2023-04-01T01:49:20;10.70;99.90
7998;DHT22;4044;49.814;7.828;2023-04-01T01:51:46;10.70;99.90
7998;DHT22;4044;49.814;7.828;2023-04-01T01:54:14;10.70;99.90
7998;DHT22;4044;49.814;7.828;2023-04-01T01:56:41;10.60;99.90
7998;DHT22;4044;49.814;7.828;2023-04-01T01:59:10;10.60;99.90
7998;DHT22;4044;49.814;7.828;2023-04-01T02:01:39;10.60;99.90
7998;DHT22;4044;49.814;7.828;2023-04-01T02:04:07;10.50;99.90
7998;DHT22;4044;49.814;7.828;2023-04-01T02:06:36;10.60;99.90
7998;DHT22;4044;49.814;7.828;2023-04-01T02:09:08;10.60;99.90
7998;DHT22;4044;49.814;7.828;2023-04-01T02:11:48;10.60;99.90
7998;DHT22;4044;49.814;7.828;2023-04-01T02:14:52;10.60;99.90
7998;DHT22;4044;49.814;7.828;2023-04-01T02:17:21;10.60;99.90
7998;DHT22;4044;49.814;7.828;2023-04-01T02:19:53;10.60;99.90
7998;DHT22;4044;49.814;7.828;2023-04-01T02:22:24;10.50;99.90
7998;DHT22;4044;49.814;7.828;2023-04-01T02:24:57;10.50;99.90
7998;DHT22;4044;49.814;7.828;2023-04-01T02:27:23;10.40;99.90
7998;DHT22;4044;49.814;7.828;2023-04-01T02:29:50;10.40;99.90
7998;DHT22;4044;49.814;7.828;2023-04-01T02:32:17;10.40;99.90
7998;DHT22;4044;49.814;7.828;2023-04-01T02:34:43;10.40;99.90
7998;DHT22;4044;49.814;7.828;2023-04-01T02:37:11;10.40;99.90
7998;DHT22;4044;49.814;7.828;2023-04-01T02:39:36;10.50;99.90
7998;DHT22;4044;49.814;7.828;2023-04-01T02:42:02;10.50;99.90
7998;DHT22;4044;49.814;7.828;2023-04-01T02:44:28;10.50;99.90
7998;DHT22;4044;49.814;7.828;2023-04-01T02:46:53;10.60;99.90
7998;DHT22;4044;49.814;7.828;2023-04-01T02:49:19;10.60;99.90
7998;DHT22;4044;49.814;7.828;2023-04-01T02:51:44;10.60;99.90
7998;DHT22;4044;49.814;7.828;2023-04-01T02:54:10;10.60;99.90
7998;DHT22;4044;49.814;7.828;2023-04-01T02:56:35;10.50;99.90
7998;DHT22;4044;49.814;7.828;2023-04-01T02:59:01;10.50;99.90
7998;DHT22;4044;49.814;7.828;2023-04-01T03:01:26;10.60;99.90
7998;DHT22;4044;49.814;7.828;2023-04-01T03:03:52;10.60;99.90
7998;DHT22;4044;49.814;7.828;2023-04-01T03:06:18;10.60;99.90
7998;DHT22;4044;49.814;7.828;2023-04-01T03:08:44;10.60;99.90
7998;DHT22;4044;49.814;7.828;2023-04-01T03:11:10;10.60;99.90
7998;DHT22;4044;49.814;7.828;2023-04-01T03:13:36;10.50;99.90
7998;DHT22;4044;49.814;7.828;2023-04-01T03:16:02;10.50;99.90
7998;DHT22;4044;49.814;7.828;2023-04-01T03:18:28;10.30;99.90
7998;DHT22;4044;49.814;7.828;2023-04-01T03:20:53;10.30;99.90
7998;DHT22;4044;49.814;7.828;2023-04-01T03:23:19;10.20;99.90
7998;DHT22;4044;49.814;7.828;2023-04-01T03:25:46;10.20;99.90
7998;DHT22;4044;49.814;7.828;2023-04-01T03:28:12;10.20;99.90
7998;DHT22;4044;49.814;7.828;2023-04-01T03:30:39;10.20;99.90
7998;DHT22;4044;49.814;7.828;2023-04-01T03:33:05;10.30;99.90
7998;DHT22;4044;49.814;7.828;2023-04-01T03:35:30;10.30;99.90
7998;DHT22;4044;49.814;7.828;2023-04-01T03:37:56;10.30;99.90
7998;DHT22;4044;49.814;7.828;2023-04-01T03:40:22;10.20;99.90
7998;DHT22;4044;49.814;7.828;2023-04-01T03:42:47;10.20;99.90
7998;DHT22;4044;49.814;7.828;2023-04-01T03:45:13;10.20;99.90
7998;DHT22;4044;49.814;7.828;2023-04-01T03:47:39;10.20;99.90
7998;DHT22;4044;49.814;7.828;2023-04-01T03:50:06;10.20;99.90
7998;DHT22;4044;49.814;7.828;2023-04-01T03:52:32;10.20;99.90
7998;DHT22;4044;49.814;7.828;2023-04-01T03:54:58;10.20;99.90
7998;DHT22;4044;49.814;7.828;2023-04-01T03:57:23;10.10;99.90
7998;DHT22;4044;49.814;7.828;2023-04-01T03:59:49;10.10;99.90
7998;DHT22;4044;49.814;7.828;2023-04-01T04:02:15;10.00;99.90
7998;DHT22;4044;49.814;7.828;2023-04-01T04:04:40;10.00;99.90
7998;DHT22;4044;49.814;7.828;2023-04-01T04:07:06;9.90;99.90
7998;DHT22;4044;49.814;7.828;2023-04-01T04:09:32;9.90;99.90
7998;DHT22;4044;49.814;7.828;2023-04-01T04:11:58;9.80;99.90
7998;DHT22;4044;49.814;7.828;2023-04-01T04:14:24;9.80;99.90
7998;DHT22;4044;49.814;7.828;2023-04-01T04:16:50;9.80;99.90
7998;DHT22;4044;49.814;7.828;2023-04-01T04:19:15;9.80;99.90
7998;DHT22;4044;49.814;7.828;2023-04-01T04:21:41;9.70;99.90
7998;DHT22;4044;49.814;7.828;2023-04-01T04:24:07;9.70;99.90
7998;DHT22;4044;49.814;7.828;2023-04-01T04:26:33;9.80;99.90
7998;DHT22;4044;49.814;7.828;2023-04-01T04:28:58;9.70;99.90
7998;DHT22;4044;49.814;7.828;2023-04-01T04:31:25;9.70;99.90
7998;DHT22;4044;49.814;7.828;2023-04-01T04:33:51;9.60;99.90
7998;DHT22;4044;49.814;7.828;2023-04-01T04:36:17;9.60;99.90
7998;DHT22;4044;49.814;7.828;2023-04-01T04:38:43;9.50;99.90
7998;DHT22;4044;49.814;7.828;2023-04-01T04:41:10;9.50;99.90
7998;DHT22;4044;49.814;7.828;2023-04-01T04:43:37;9.40;99.90
7998;DHT22;4044;49.814;7.828;2023-04-01T04:46:10;9.40;99.90
7998;DHT22;4044;49.814;7.828;2023-04-01T04:48:36;9.40;99.90
7998;DHT22;4044;49.814;7.828;2023-04-01T04:51:02;9.40;99.90
7998;DHT22;4044;49.814;7.828;2023-04-01T04:53:28;9.50;99.90
7998;DHT22;4044;49.814;7.828;2023-04-01T04:55:54;9.50;99.90
7998;DHT22;4044;49.814;7.828;2023-04-01T04:58:19;9.60;99.90
7998;DHT22;4044;49.814;7.828;2023-04-01T05:00:46;9.70;99.90
7998;DHT22;4044;49.814;7.828;2023-04-01T05:03:12;9.70;99.90
7998;DHT22;4044;49.814;7.828;2023-04-01T05:05:38;9.60;99.90
7998;DHT22;4044;49.814;7.828;2023-04-01T05:08:04;9.60;99.90
7998;DHT22;4044;49.814;7.828;2023-04-01T05:10:30;9.60;99.90
7998;DHT22;4044;49.814;7.828;2023-04-01T05:12:57;9.60;99.90
7998;DHT22;4044;49.814;7.828;2023-04-01T05:15:22;9.60;99.90
7998;DHT22;4044;49.814;7.828;2023-04-01T05:17:48;9.60;99.90
7998;DHT22;4044;49.814;7.828;2023-04-01T05:20:14;9.60;99.90
7998;DHT22;4044;49.814;7.828;2023-04-01T05:22:40;9.60;99.90
7998;DHT22;4044;49.814;7.828;2023-04-01T05:25:06;9.60;99.90
7998;DHT22;4044;49.814;7.828;2023-04-01T05:27:32;9.70;99.90
7998;DHT22;4044;49.814;7.828;2023-04-01T05:29:57;9.80;99.90
7998;DHT22;4044;49.814;7.828;2023-04-01T05:32:23;9.90;99.90
7998;DHT22;4044;49.814;7.828;2023-04-01T05:34:52;10.00;99.90
7998;DHT22;4044;49.814;7.828;2023-04-01T05:37:17;10.00;99.90
7998;DHT22;4044;49.814;7.828;2023-04-01T05:39:43;10.00;99.90
7998;DHT22;4044;49.814;7.828;2023-04-01T05:42:08;10.00;99.90
7998;DHT22;4044;49.814;7.828;2023-04-01T05:44:35;10.10;99.90
7998;DHT22;4044;49.814;7.828;2023-04-01T05:47:01;10.20;99.90
7998;DHT22;4044;49.814;7.828;2023-04-01T05:49:27;10.30;99.90
7998;DHT22;4044;49.814;7.828;2023-04-01T05:51:52;10.20;99.90
7998;DHT22;4044;49.814;7.828;2023-04-01T05:54:18;10.20;99.90
7998;DHT22;4044;49.814;7.828;2023-04-01T05:56:44;10.20;99.90
7998;DHT22;4044;49.814;7.828;2023-04-01T05:59:11;10.20;99.90
7998;DHT22;4044;49.814;7.828;2023-04-01T06:01:37;10.30;99.90
7998;DHT22;4044;49.814;7.828;2023-04-01T06:04:02;10.30;99.90
7998;DHT22;4044;49.814;7.828;2023-04-01T06:06:30;10.20;99.90
7998;DHT22;4044;49.814;7.828;2023-04-01T06:20:43;9.60;99.90
7998;DHT22;4044;49.814;7.828;2023-04-01T06:40:11;9.20;99.90
7998;DHT22;4044;49.814;7.828;2023-04-01T06:42:54;9.20;99.90
7998;DHT22;4044;49.814;7.828;2023-04-01T06:45:34;9.30;99.90
7998;DHT22;4044;49.814;7.828;2023-04-01T06:48:15;9.30;99.90
7998;DHT22;4044;49.814;7.828;2023-04-01T06:56:24;9.70;99.90
7998;DHT22;4044;49.814;7.828;2023-04-01T06:58:56;9.70;99.90
7998;DHT22;4044;49.814;7.828;2023-04-01T07:01:45;9.70;99.90
7998;DHT22;4044;49.814;7.828;2023-04-01T07:04:30;9.80;99.90
7998;DHT22;4044;49.814;7.828;2023-04-01T07:07:04;9.80;99.90
7998;DHT22;4044;49.814;7.828;2023-04-01T07:09:39;9.90;99.90
7998;DHT22;4044;49.814;7.828;2023-04-01T07:12:15;10.10;99.90
7998;DHT22;4044;49.814;7.828;2023-04-01T07:14:44;10.20;99.90
7998;DHT22;4044;49.814;7.828;2023-04-01T07:17:28;10.20;99.90
7998;DHT22;4044;49.814;7.828;2023-04-01T07:20:31;10.30;99.90
7998;DHT22;4044;49.814;7.828;2023-04-01T07:22:59;10.30;99.90
7998;DHT22;4044;49.814;7.828;2023-04-01T07:25:31;10.30;99.90
7998;DHT22;4044;49.814;7.828;2023-04-01T07:28:11;10.30;99.90
7998;DHT22;4044;49.814;7.828;2023-04-01T07:36:31;10.30;99.90
7998;DHT22;4044;49.814;7.828;2023-04-01T07:41:51;10.30;99.90
7998;DHT22;4044;49.814;7.828;2023-04-01T07:47:13;10.30;99.90
7998;DHT22;4044;49.814;7.828;2023-04-01T07:49:49;10.30;99.90
7998;DHT22;4044;49.814;7.828;2023-04-01T07:52:36;10.40;99.90
7998;DHT22;4044;49.814;7.828;2023-04-01T07:55:24;10.30;99.90
7998;DHT22;4044;49.814;7.828;2023-04-01T07:58:18;10.30;99.90
7998;DHT22;4044;49.814;7.828;2023-04-01T08:09:08;10.40;99.90
7998;DHT22;4044;49.814;7.828;2023-04-01T08:17:08;10.80;99.90
7998;DHT22;4044;49.814;7.828;2023-04-01T08:22:37;11.10;99.90
7998;DHT22;4044;49.814;7.828;2023-04-01T08:25:05;11.40;99.90
7998;DHT22;4044;49.814;7.828;2023-04-01T08:27:44;11.50;99.90
7998;DHT22;4044;49.814;7.828;2023-04-01T08:30:26;11.70;99.90
7998;DHT22;4044;49.814;7.828;2023-04-01T08:32:59;11.80;99.90
7998;DHT22;4044;49.814;7.828;2023-04-01T08:37:55;11.80;99.90
7998;DHT22;4044;49.814;7.828;2023-04-01T08:40:54;12.00;99.90
7998;DHT22;4044;49.814;7.828;2023-04-01T08:46:19;12.00;99.90
7998;DHT22;4044;49.814;7.828;2023-04-01T08:49:05;12.00;99.90
7998;DHT22;4044;49.814;7.828;2023-04-01T09:03:26;12.40;99.90
7998;DHT22;4044;49.814;7.828;2023-04-01T09:06:33;12.60;99.90
7998;DHT22;4044;49.814;7.828;2023-04-01T09:09:22;12.70;99.90
7998;DHT22;4044;49.814;7.828;2023-04-01T09:28:42;12.40;99.90
7998;DHT22;4044;49.814;7.828;2023-04-01T09:31:37;12.30;99.90
7998;DHT22;4044;49.814;7.828;2023-04-01T09:36:47;12.70;99.90
7998;DHT22;4044;49.814;7.828;2023-04-01T09:39:43;12.70;99.90
7998;DHT22;4044;49.814;7.828;2023-04-01T09:45:01;13.30;99.90
7998;DHT22;4044;49.814;7.828;2023-04-01T09:47:49;13.60;99.90
7998;DHT22;4044;49.814;7.828;2023-04-01T09:53:28;13.80;99.90
7998;DHT22;4044;49.814;7.828;2023-04-01T10:13:53;13.50;99.90
7998;DHT22;4044;49.814;7.828;2023-04-01T10:27:45;12.80;99.90
7998;DHT22;4044;49.814;7.828;2023-04-01T10:34:28;12.60;99.90
7998;DHT22;4044;49.814;7.828;2023-04-01T10:36:41;12.30;99.90
7998;DHT22;4044;49.814;7.828;2023-04-01T10:43:15;12.30;99.90
7998;DHT22;4044;49.814;7.828;2023-04-01T10:51:33;12.40;99.90
7998;DHT22;4044;49.814;7.828;2023-04-01T10:54:43;12.50;99.90
7998;DHT22;4044;49.814;7.828;2023-04-01T11:05:48;11.60;99.90
7998;DHT22;4044;49.814;7.828;2023-04-01T11:14:43;11.40;99.90
7998;DHT22;4044;49.814;7.828;2023-04-01T11:20:13;11.90;99.90
7998;DHT22;4044;49.814;7.828;2023-04-01T11:28:27;12.50;99.90
7998;DHT22;4044;49.814;7.828;2023-04-01T11:31:25;12.30;99.90
7998;DHT22;4044;49.814;7.828;2023-04-01T11:39:59;12.00;99.90
7998;DHT22;4044;49.814;7.828;2023-04-01T11:45:11;12.10;99.90
7998;DHT22;4044;49.814;7.828;2023-04-01T11:50:53;12.00;99.90
7998;DHT22;4044;49.814;7.828;2023-04-01T11:53:36;12.00;99.90
7998;DHT22;4044;49.814;7.828;2023-04-01T11:59:15;11.30;99.90
7998;DHT22;4044;49.814;7.828;2023-04-01T12:02:08;11.20;99.90
7998;DHT22;4044;49.814;7.828;2023-04-01T12:10:26;10.90;99.90
7998;DHT22;4044;49.814;7.828;2023-04-01T12:13:14;10.90;99.90
7998;DHT22;4044;49.814;7.828;2023-04-01T12:23:33;11.20;99.90
7998;DHT22;4044;49.814;7.828;2023-04-01T12:32:29;11.40;99.90
7998;DHT22;4044;49.814;7.828;2023-04-01T12:40:24;11.30;99.90
7998;DHT22;4044;49.814;7.828;2023-04-01T12:45:33;11.60;99.90
7998;DHT22;4044;49.814;7.828;2023-04-01T12:54:02;11.40;99.90
7998;DHT22;4044;49.814;7.828;2023-04-01T12:59:27;11.10;99.90
7998;DHT22;4044;49.814;7.828;2023-04-01T13:02:10;11.10;99.90
7998;DHT22;4044;49.814;7.828;2023-04-01T13:07:57;11.50;99.90
7998;DHT22;4044;49.814;7.828;2023-04-01T13:15:52;11.20;99.90
7998;DHT22;4044;49.814;7.828;2023-04-01T13:21:43;11.10;99.90
7998;DHT22;4044;49.814;7.828;2023-04-01T13:32:50;10.90;99.90
7998;DHT22;4044;49.814;7.828;2023-04-01T13:40:58;10.90;99.90
7998;DHT22;4044;49.814;7.828;2023-04-01T13:43:43;10.90;99.90
7998;DHT22;4044;49.814;7.828;2023-04-01T13:54:31;11.10;99.90
7998;DHT22;4044;49.814;7.828;2023-04-01T14:03:30;11.10;99.90
7998;DHT22;4044;49.814;7.828;2023-04-01T14:06:01;11.30;99.90
7998;DHT22;4044;49.814;7.828;2023-04-01T14:14:24;11.00;99.90
7998;DHT22;4044;49.814;7.828;2023-04-01T14:27:54;11.30;99.90
7998;DHT22;4044;49.814;7.828;2023-04-01T14:30:46;11.60;99.90
7998;DHT22;4044;49.814;7.828;2023-04-01T14:33:33;11.80;99.90
7998;DHT22;4044;49.814;7.828;2023-04-01T14:44:51;11.70;99.90
7998;DHT22;4044;49.814;7.828;2023-04-01T14:50:29;11.80;99.90
7998;DHT22;4044;49.814;7.828;2023-04-01T14:55:56;11.90;99.90
7998;DHT22;4044;49.814;7.828;2023-04-01T14:58:24;12.00;99.90
7998;DHT22;4044;49.814;7.828;2023-04-01T15:01:35;11.80;99.90
7998;DHT22;4044;49.814;7.828;2023-04-01T15:09:37;11.60;99.90
7998;DHT22;4044;49.814;7.828;2023-04-01T15:12:48;11.40;99.90
7998;DHT22;4044;49.814;7.828;2023-04-01T15:30:11;11.80;99.90
7998;DHT22;4044;49.814;7.828;2023-04-01T15:32:57;11.60;99.90
7998;DHT22;4044;49.814;7.828;2023-04-01T15:38:02;11.30;99.90
7998;DHT22;4044;49.814;7.828;2023-04-01T15:46:16;11.30;99.90
7998;DHT22;4044;49.814;7.828;2023-04-01T15:49:15;11.30;99.90
7998;DHT22;4044;49.814;7.828;2023-04-01T15:52:15;11.30;99.90
7998;DHT22;4044;49.814;7.828;2023-04-01T16:00:27;11.10;99.90
7998;DHT22;4044;49.814;7.828;2023-04-01T16:03:10;11.30;99.90
7998;DHT22;4044;49.814;7.828;2023-04-01T16:08:54;11.80;99.90
7998;DHT22;4044;49.814;7.828;2023-04-01T16:11:28;11.80;99.90
7998;DHT22;4044;49.814;7.828;2023-04-01T16:14:33;12.00;99.90
7998;DHT22;4044;49.814;7.828;2023-04-01T16:22:41;12.30;99.90
7998;DHT22;4044;49.814;7.828;2023-04-01T16:33:22;12.40;99.90
7998;DHT22;4044;49.814;7.828;2023-04-01T16:36:19;12.20;99.90
7998;DHT22;4044;49.814;7.828;2023-04-01T16:44:48;12.00;99.90
7998;DHT22;4044;49.814;7.828;2023-04-01T16:47:19;11.90;99.90
7998;DHT22;4044;49.814;7.828;2023-04-01T16:50:22;11.80;99.90
7998;DHT22;4044;49.814;7.828;2023-04-01T16:55:57;11.90;99.90
7998;DHT22;4044;49.814;7.828;2023-04-01T17:01:50;11.80;99.90
7998;DHT22;4044;49.814;7.828;2023-04-01T17:07:11;11.70;99.90
7998;DHT22;4044;49.814;7.828;2023-04-01T17:15:33;12.10;99.90
7998;DHT22;4044;49.814;7.828;2023-04-01T17:18:14;12.10;99.90
7998;DHT22;4044;49.814;7.828;2023-04-01T17:23:43;11.90;99.90
7998;DHT22;4044;49.814;7.828;2023-04-01T17:32:14;11.70;99.90
7998;DHT22;4044;49.814;7.828;2023-04-01T17:40:28;11.20;99.90
7998;DHT22;4044;49.814;7.828;2023-04-01T17:45:57;10.90;99.90
7998;DHT22;4044;49.814;7.828;2023-04-01T17:54:19;10.80;99.90
7998;DHT22;4044;49.814;7.828;2023-04-01T18:00:16;10.70;99.90
7998;DHT22;4044;49.814;7.828;2023-04-01T18:03:09;10.70;99.90
7998;DHT22;4044;49.814;7.828;2023-04-01T18:05:54;10.60;99.90
7998;DHT22;4044;49.814;7.828;2023-04-01T18:18:58;10.20;99.90
7998;DHT22;4044;49.814;7.828;2023-04-01T18:21:36;10.20;99.90
7998;DHT22;4044;49.814;7.828;2023-04-01T18:24:18;10.20;99.90
7998;DHT22;4044;49.814;7.828;2023-04-01T18:26:59;10.10;99.90
7998;DHT22;4044;49.814;7.828;2023-04-01T18:29:47;10.10;99.90
7998;DHT22;4044;49.814;7.828;2023-04-01T18:32:35;10.00;99.90
7998;DHT22;4044;49.814;7.828;2023-04-01T18:40:40;9.90;99.90
7998;DHT22;4044;49.814;7.828;2023-04-01T18:45:54;9.90;99.90
7998;DHT22;4044;49.814;7.828;2023-04-01T18:48:49;9.80;99.90
7998;DHT22;4044;49.814;7.828;2023-04-01T18:51:21;9.80;99.90
7998;DHT22;4044;49.814;7.828;2023-04-01T18:53:55;9.80;99.90
7998;DHT22;4044;49.814;7.828;2023-04-01T18:56:35;9.90;99.90
7998;DHT22;4044;49.814;7.828;2023-04-01T19:01:52;9.80;99.90
7998;DHT22;4044;49.814;7.828;2023-04-01T19:04:45;9.80;99.90
7998;DHT22;4044;49.814;7.828;2023-04-01T19:10:00;9.90;99.90
7998;DHT22;4044;49.814;7.828;2023-04-01T19:12:54;9.90;99.90
7998;DHT22;4044;49.814;7.828;2023-04-01T19:20:47;9.80;99.90
7998;DHT22;4044;49.814;7.828;2023-04-01T19:26:09;9.70;99.90
7998;DHT22;4044;49.814;7.828;2023-04-01T19:31:40;9.80;99.90
7998;DHT22;4044;49.814;7.828;2023-04-01T19:35:06;9.80;99.90
7998;DHT22;4044;49.814;7.828;2023-04-01T19:37:33;9.80;99.90
7998;DHT22;4044;49.814;7.828;2023-04-01T19:40:28;9.80;99.90
7998;DHT22;4044;49.814;7.828;2023-04-01T19:43:07;9.80;99.90
7998;DHT22;4044;49.814;7.828;2023-04-01T19:48:58;10.00;99.90
7998;DHT22;4044;49.814;7.828;2023-04-01T19:54:13;10.20;99.90
7998;DHT22;4044;49.814;7.828;2023-04-01T19:56:50;10.20;99.90
7998;DHT22;4044;49.814;7.828;2023-04-01T20:02:14;10.30;99.90
7998;DHT22;4044;49.814;7.828;2023-04-01T20:04:51;10.30;99.90
7998;DHT22;4044;49.814;7.828;2023-04-01T20:07:41;10.20;99.90
7998;DHT22;4044;49.814;7.828;2023-04-01T20:12:53;10.00;99.90
7998;DHT22;4044;49.814;7.828;2023-04-01T20:15:30;10.00;99.90
7998;DHT22;4044;49.814;7.828;2023-04-01T20:18:00;10.00;99.90
7998;DHT22;4044;49.814;7.828;2023-04-01T20:20:28;10.20;99.90
7998;DHT22;4044;49.814;7.828;2023-04-01T20:25:46;10.40;99.90
7998;DHT22;4044;49.814;7.828;2023-04-01T20:30:58;10.60;99.90
7998;DHT22;4044;49.814;7.828;2023-04-01T20:36:36;10.80;99.90
7998;DHT22;4044;49.814;7.828;2023-04-01T20:39:18;10.90;99.90
7998;DHT22;4044;49.814;7.828;2023-04-01T20:42:29;10.90;99.90
7998;DHT22;4044;49.814;7.828;2023-04-01T20:50:52;11.00;99.90
7998;DHT22;4044;49.814;7.828;2023-04-01T20:53:34;10.90;99.90
7998;DHT22;4044;49.814;7.828;2023-04-01T21:01:32;10.40;99.90
7998;DHT22;4044;49.814;7.828;2023-04-01T21:04:37;10.10;99.90
7998;DHT22;4044;49.814;7.828;2023-04-01T21:07:21;9.90;99.90
7998;DHT22;4044;49.814;7.828;2023-04-01T21:10:22;9.90;99.90
7998;DHT22;4044;49.814;7.828;2023-04-01T21:13:15;9.90;99.90
7998;DHT22;4044;49.814;7.828;2023-04-01T21:26:52;10.30;99.90
7998;DHT22;4044;49.814;7.828;2023-04-01T21:38:03;10.30;99.90
7998;DHT22;4044;49.814;7.828;2023-04-01T21:43:42;10.30;99.90
7998;DHT22;4044;49.814;7.828;2023-04-01T22:00:29;10.30;99.90
7998;DHT22;4044;49.814;7.828;2023-04-01T22:06:15;10.20;99.90
7998;DHT22;4044;49.814;7.828;2023-04-01T22:08:55;10.20;99.90
7998;DHT22;4044;49.814;7.828;2023-04-01T22:16:59;10.10;99.90
7998;DHT22;4044;49.814;7.828;2023-04-01T22:25:14;10.30;99.90
7998;DHT22;4044;49.814;7.828;2023-04-01T22:27:52;10.30;99.90
7998;DHT22;4044;49.814;7.828;2023-04-01T22:30:49;10.30;99.90
7998;DHT22;4044;49.814;7.828;2023-04-01T22:36:06;10.50;99.90
7998;DHT22;4044;49.814;7.828;2023-04-01T22:38:51;10.50;99.90
7998;DHT22;4044;49.814;7.828;2023-04-01T22:41:36;10.50;99.90
7998;DHT22;4044;49.814;7.828;2023-04-01T22:44:15;10.60;99.90
7998;DHT22;4044;49.814;7.828;2023-04-01T22:49:29;10.60;99.90
7998;DHT22;4044;49.814;7.828;2023-04-01T22:54:52;10.50;99.90
7998;DHT22;4044;49.814;7.828;2023-04-01T23:00:42;10.30;99.90
7998;DHT22;4044;49.814;7.828;2023-04-01T23:03:31;10.30;99.90
7998;DHT22;4044;49.814;7.828;2023-04-01T23:06:02;10.40;99.90
7998;DHT22;4044;49.814;7.828;2023-04-01T23:08:49;10.40;99.90
7998;DHT22;4044;49.814;7.828;2023-04-01T23:36:31;10.30;99.90
7998;DHT22;4044;49.814;7.828;2023-04-01T23:38:38;10.30;99.90
7998;DHT22;4044;49.814;7.828;2023-04-01T23:41:05;10.20;99.90
7998;DHT22;4044;49.814;7.828;2023-04-01T23:43:36;10.20;99.90
7998;DHT22;4044;49.814;7.828;2023-04-01T23:46:02;10.10;99.90
7998;DHT22;4044;49.814;7.828;2023-04-01T23:48:37;10.10;99.90
7998;DHT22;4044;49.814;7.828;2023-04-01T23:51:03;10.00;99.90
7998;DHT22;4044;49.814;7.828;2023-04-01T23:53:44;10.00;99.90
7998;DHT22;4044;49.814;7.828;2023-04-01T23:56:10;10.00;99.90
7998;DHT22;4044;49.814;7.828;2023-04-01T23:58:47;10.00;99.90
